Time;durP1;ratioP1;P1;durP2;ratioP2;P2;SDS_P1;SDS_P2;PMS_P1;PMS_P2;Temp;Humidity;BMP_temperature;BMP_pressure;BME280_temperature;BME280_humidity;BME280_pressure;Samples;Min_cycle;Max_cycle;Signal;HPM_P1;HPM_P2
2021/08/25 04:30:54;;;;;;;14.40;11.00;;;10.30;99.90;;;;;;6031243;23;21519;31
2021/08/25 04:33:20;;;;;;;14.70;13.10;;;10.30;99.90;;;;;;4915076;29;21030;-78
2021/08/25 04:35:45;;;;;;;15.87;12.33;;;10.30;99.90;;;;;;4902746;29;20431;-80
2021/08/25 04:38:11;;;;;;;15.07;12.33;;;10.30;99.90;;;;;;4914719;29;20189;-80
2021/08/25 04:40:36;;;;;;;17.63;12.37;;;10.30;99.90;;;;;;4923447;29;20650;-79
2021/08/25 04:43:02;;;;;;;18.43;12.57;;;10.30;99.90;;;;;;4906996;29;20200;-81
2021/08/25 04:45:28;;;;;;;15.80;13.63;;;10.30;99.90;;;;;;4906079;29;20184;-80
2021/08/25 04:47:53;;;;;;;15.93;13.50;;;10.40;99.90;;;;;;4904905;29;20490;-81
2021/08/25 04:50:19;;;;;;;22.40;14.90;;;10.30;99.90;;;;;;4904873;29;20194;-80
2021/08/25 04:52:44;;;;;;;16.83;12.10;;;10.40;99.90;;;;;;4903898;29;20213;-80
2021/08/25 04:55:10;;;;;;;20.87;13.73;;;10.40;99.90;;;;;;4904776;29;20182;-80
2021/08/25 04:57:36;;;;;;;17.80;14.40;;;10.40;99.90;;;;;;4903836;29;20257;-80
2021/08/25 05:00:02;;;;;;;17.47;13.40;;;10.40;99.90;;;;;;4903624;29;20222;-78
2021/08/25 05:02:27;;;;;;;16.20;13.67;;;10.40;99.90;;;;;;4896256;29;20194;-75
2021/08/25 05:04:53;;;;;;;22.97;14.00;;;10.40;99.90;;;;;;4895468;29;20563;-75
2021/08/25 05:07:18;;;;;;;17.20;13.97;;;10.50;99.90;;;;;;4911061;29;20207;-75
2021/08/25 05:09:44;;;;;;;19.30;14.47;;;10.50;99.90;;;;;;4896375;29;20633;-75
2021/08/25 05:12:09;;;;;;;18.03;14.30;;;10.60;99.90;;;;;;4896305;29;20191;-75
2021/08/25 05:14:35;;;;;;;17.33;13.17;;;10.60;99.90;;;;;;4896581;29;20209;-76
2021/08/25 05:17:02;;;;;;;16.53;13.23;;;10.60;99.90;;;;;;4896443;29;20179;-75
2021/08/25 05:19:27;;;;;;;14.50;12.97;;;10.70;99.90;;;;;;4896355;29;20231;-75
2021/08/25 05:21:53;;;;;;;16.63;13.40;;;10.80;99.90;;;;;;4896693;29;20443;-78
2021/08/25 05:24:19;;;;;;;17.03;13.80;;;10.90;99.90;;;;;;4896841;29;20256;-77
2021/08/25 05:26:45;;;;;;;19.17;15.27;;;11.00;99.90;;;;;;4911797;29;20294;-78
2021/08/25 05:29:11;;;;;;;15.57;12.90;;;11.10;99.90;;;;;;4896678;29;20466;-78
2021/08/25 05:31:36;;;;;;;16.70;14.23;;;11.30;99.90;;;;;;4897044;29;20214;-78
2021/08/25 05:34:02;;;;;;;13.80;11.73;;;11.50;99.90;;;;;;4897032;29;20735;-77
2021/08/25 05:36:27;;;;;;;15.07;13.23;;;11.80;99.90;;;;;;4896915;29;20264;-78
2021/08/25 05:38:53;;;;;;;18.60;13.60;;;12.10;99.90;;;;;;4897010;29;20179;-78
2021/08/25 05:41:19;;;;;;;13.70;12.30;;;12.40;99.90;;;;;;4897117;29;20230;-78
2021/08/25 05:43:45;;;;;;;13.90;12.40;;;12.70;99.90;;;;;;4897027;29;20421;-78
2021/08/25 05:46:11;;;;;;;14.60;12.20;;;13.00;99.90;;;;;;4896862;29;20269;-78
2021/08/25 05:48:36;;;;;;;12.83;11.43;;;13.20;99.90;;;;;;4896785;29;20544;-79
2021/08/25 05:51:02;;;;;;;15.53;12.30;;;13.60;99.90;;;;;;4896737;29;20708;-80
2021/08/25 05:53:27;;;;;;;12.60;10.90;;;13.80;99.90;;;;;;4896624;29;20218;-79
2021/08/25 05:55:53;;;;;;;13.17;11.97;;;14.10;99.90;;;;;;4911373;29;20609;-79
2021/08/25 05:58:18;;;;;;;14.20;12.00;;;14.40;99.90;;;;;;4897186;29;20191;-79
2021/08/25 06:00:44;;;;;;;12.17;10.87;;;14.70;99.90;;;;;;4897983;29;20229;-78
2021/08/25 06:03:09;;;;;;;12.17;10.90;;;15.00;99.90;;;;;;4896637;29;20179;-79
2021/08/25 06:05:35;;;;;;;16.33;11.90;;;15.30;99.90;;;;;;4896969;29;20187;-79
2021/08/25 06:08:01;;;;;;;12.37;10.70;;;15.50;99.90;;;;;;4896740;29;20648;-78
2021/08/25 06:10:27;;;;;;;12.57;11.17;;;15.70;99.90;;;;;;4913800;29;20479;-77
2021/08/25 06:12:52;;;;;;;13.43;12.00;;;15.70;99.90;;;;;;4900318;29;20234;-78
2021/08/25 06:15:18;;;;;;;12.23;10.70;;;16.00;99.90;;;;;;4900593;29;20519;-79
2021/08/25 06:17:44;;;;;;;16.87;13.17;;;16.30;99.90;;;;;;4901342;29;20255;-78
2021/08/25 06:20:11;;;;;;;17.83;11.03;;;16.50;99.90;;;;;;4899904;29;20453;-79
2021/08/25 06:22:36;;;;;;;14.17;11.30;;;16.70;99.90;;;;;;4900177;29;20447;-79
2021/08/25 06:25:02;;;;;;;11.03;9.93;;;16.90;99.90;;;;;;4900484;29;20426;-79
2021/08/25 06:27:27;;;;;;;12.33;11.03;;;17.20;99.90;;;;;;4900512;29;20182;-79
2021/08/25 06:29:53;;;;;;;12.70;11.50;;;17.60;99.90;;;;;;4900179;29;20234;-79
2021/08/25 06:32:18;;;;;;;12.00;10.70;;;17.80;99.90;;;;;;4899624;29;20707;-80
2021/08/25 06:34:44;;;;;;;11.50;10.30;;;18.00;99.90;;;;;;4899886;29;20263;-81
2021/08/25 06:37:09;;;;;;;12.17;10.87;;;18.30;99.90;;;;;;4900155;29;20206;-77
2021/08/25 06:39:35;;;;;;;12.27;10.60;;;18.40;99.90;;;;;;4899813;29;20178;-80
2021/08/25 06:42:01;;;;;;;10.97;9.87;;;18.40;99.90;;;;;;4899979;29;20202;-81
2021/08/25 06:44:26;;;;;;;12.60;10.57;;;18.80;99.90;;;;;;4900073;29;20222;-81
2021/08/25 06:46:52;;;;;;;13.20;10.80;;;19.00;99.90;;;;;;4900268;29;20217;-81
2021/08/25 06:49:18;;;;;;;12.90;10.23;;;19.40;99.90;;;;;;4900281;29;20186;-81
2021/08/25 06:51:43;;;;;;;10.83;9.27;;;19.50;99.90;;;;;;4899694;29;20194;-81
2021/08/25 06:54:09;;;;;;;11.93;10.10;;;19.60;99.90;;;;;;4899817;29;20210;-80
2021/08/25 06:56:35;;;;;;;11.00;9.83;;;19.70;99.90;;;;;;4905849;29;20175;-81
2021/08/25 06:59:00;;;;;;;12.23;9.07;;;19.90;99.90;;;;;;4911122;29;20182;-80
2021/08/25 07:01:26;;;;;;;16.90;10.17;;;20.00;99.90;;;;;;4905140;29;20199;-80
2021/08/25 07:03:51;;;;;;;9.70;8.27;;;20.20;99.90;;;;;;4904126;29;20178;-82
2021/08/25 07:06:19;;;;;;;8.73;7.90;;;20.20;99.90;;;;;;4903378;29;20186;-81
2021/08/25 07:08:45;;;;;;;9.33;7.73;;;20.40;99.90;;;;;;4903773;29;20641;-81
2021/08/25 07:11:10;;;;;;;8.30;7.57;;;20.40;99.90;;;;;;4903757;29;20525;-81
2021/08/25 07:13:36;;;;;;;8.93;8.07;;;20.50;99.90;;;;;;4902748;29;20215;-82
2021/08/25 07:16:01;;;;;;;10.47;8.50;;;20.70;99.90;;;;;;4902785;29;20179;-80
2021/08/25 07:18:27;;;;;;;9.20;7.60;;;20.70;99.90;;;;;;4902741;29;20282;-80
2021/08/25 07:20:52;;;;;;;9.80;8.80;;;20.90;99.90;;;;;;4901329;29;20201;-81
2021/08/25 07:23:18;;;;;;;10.83;9.73;;;21.10;99.90;;;;;;4901615;29;20186;-81
2021/08/25 07:25:44;;;;;;;8.80;7.90;;;21.20;99.90;;;;;;4903106;29;20186;-81
2021/08/25 07:28:09;;;;;;;10.00;8.73;;;21.30;99.90;;;;;;4903250;29;20178;-81
2021/08/25 07:30:35;;;;;;;10.70;8.80;;;21.40;99.90;;;;;;4901888;29;20538;-82
2021/08/25 07:33:01;;;;;;;9.70;8.70;;;21.40;99.90;;;;;;4901002;29;20517;-80
2021/08/25 07:35:29;;;;;;;10.97;8.87;;;21.70;99.90;;;;;;4897516;29;20183;-79
2021/08/25 07:37:58;;;;;;;10.00;7.27;;;21.80;99.90;;;;;;4898132;29;20170;-78
2021/08/25 07:40:24;;;;;;;8.27;7.53;;;22.00;99.90;;;;;;4898646;29;20430;-80
2021/08/25 07:42:50;;;;;;;7.67;6.60;;;21.70;99.90;;;;;;4898546;29;20450;-80
2021/08/25 07:45:15;;;;;;;7.87;7.17;;;21.60;99.90;;;;;;4897392;29;20780;-79
2021/08/25 07:47:41;;;;;;;7.57;6.97;;;21.70;99.90;;;;;;4898443;29;20183;-81
2021/08/25 07:50:08;;;;;;;7.87;7.10;;;21.80;99.90;;;;;;4898118;29;20294;-79
2021/08/25 07:52:34;;;;;;;7.80;7.00;;;22.30;99.90;;;;;;4898182;29;20194;-81
2021/08/25 07:55:00;;;;;;;7.60;6.90;;;22.70;99.90;;;;;;4898210;29;20943;-81
2021/08/25 07:57:25;;;;;;;8.20;7.40;;;22.90;99.90;;;;;;4898055;29;20175;-79
2021/08/25 07:59:51;;;;;;;9.40;6.80;;;23.10;99.90;;;;;;4898244;29;20625;-81
2021/08/25 08:02:16;;;;;;;7.53;6.87;;;23.10;99.90;;;;;;4897619;29;20289;-80
2021/08/25 08:04:42;;;;;;;7.57;6.83;;;23.10;99.90;;;;;;4896805;29;20175;-81
2021/08/25 08:07:07;;;;;;;7.27;6.50;;;23.00;99.90;;;;;;4899166;29;20183;-80
2021/08/25 08:09:33;;;;;;;8.03;6.40;;;23.40;99.90;;;;;;4897463;29;20189;-79
2021/08/25 08:11:58;;;;;;;9.70;7.13;;;23.50;99.90;;;;;;4897750;29;20210;-81
2021/08/25 08:14:25;;;;;;;9.03;7.97;;;23.70;99.90;;;;;;4896219;29;20218;-78
2021/08/25 08:16:55;;;;;;;8.10;6.93;;;23.50;99.90;;;;;;4897769;29;20186;-79
2021/08/25 08:19:22;;;;;;;6.73;6.07;;;23.70;99.90;;;;;;4897220;29;20518;-78
2021/08/25 08:21:49;;;;;;;7.17;6.27;;;23.60;99.90;;;;;;4897528;29;20467;-78
2021/08/25 08:24:15;;;;;;;8.47;6.00;;;23.70;99.90;;;;;;4897512;29;20475;-78
2021/08/25 08:26:41;;;;;;;15.30;6.90;;;23.80;99.90;;;;;;4897717;29;20991;-79
2021/08/25 08:29:07;;;;;;;11.73;6.40;;;23.90;99.90;;;;;;4896756;29;20517;-78
2021/08/25 08:31:33;;;;;;;8.77;6.17;;;24.10;99.90;;;;;;4896885;29;20607;-78
2021/08/25 08:33:58;;;;;;;7.17;6.40;;;24.00;99.90;;;;;;4893929;29;20214;-77
2021/08/25 08:36:24;;;;;;;6.87;6.33;;;24.00;99.90;;;;;;4886875;29;20257;-77
2021/08/25 08:38:50;;;;;;;7.20;6.60;;;24.10;99.90;;;;;;4896143;29;20696;-77
2021/08/25 08:41:15;;;;;;;6.33;5.73;;;23.80;99.90;;;;;;4896471;29;20207;-77
2021/08/25 08:43:46;;;;;;;7.90;6.20;;;23.70;99.90;;;;;;4896784;29;20223;-78
2021/08/25 08:46:16;;;;;;;7.60;6.27;;;23.60;99.90;;;;;;4895514;29;20194;-78
2021/08/25 08:48:42;;;;;;;8.07;7.27;;;23.60;99.90;;;;;;4895968;29;20439;-78
2021/08/25 08:51:14;;;;;;;7.23;6.53;;;23.70;99.90;;;;;;4896034;29;20447;-77
2021/08/25 08:53:40;;;;;;;12.47;5.90;;;23.80;99.90;;;;;;4896362;29;20565;-77
2021/08/25 08:56:06;;;;;;;8.07;6.70;;;24.00;99.90;;;;;;4895944;29;20506;-77
2021/08/25 08:58:32;;;;;;;6.43;5.83;;;24.00;99.90;;;;;;4896154;29;20182;-77
2021/08/25 09:00:58;;;;;;;7.30;6.57;;;24.00;99.90;;;;;;4896209;29;20583;-77
2021/08/25 09:03:26;;;;;;;7.63;6.87;;;23.80;99.90;;;;;;4895801;29;20245;-78
2021/08/25 09:05:54;;;;;;;6.73;6.03;;;23.90;99.90;;;;;;4896807;29;20653;-78
2021/08/25 09:08:26;;;;;;;7.67;6.37;;;23.70;99.90;;;;;;4895996;29;21301;-77
2021/08/25 09:11:01;;;;;;;6.40;5.80;;;23.80;99.90;;;;;;4895966;29;20533;-78
2021/08/25 09:13:33;;;;;;;10.03;6.53;;;23.80;99.90;;;;;;4895950;29;20473;-78
2021/08/25 09:15:59;;;;;;;7.60;5.87;;;24.10;99.90;;;;;;4896351;29;21065;-78
2021/08/25 09:18:24;;;;;;;6.27;5.60;;;24.50;99.90;;;;;;4895758;29;20490;-79
2021/08/25 09:20:50;;;;;;;9.73;5.33;;;24.80;99.90;;;;;;4896450;29;20342;-79
2021/08/25 09:23:18;;;;;;;7.63;6.17;;;25.10;99.90;;;;;;4895521;29;20250;-80
2021/08/25 09:25:52;;;;;;;7.00;6.40;;;25.60;99.90;;;;;;4897046;29;20189;-78
2021/08/25 09:28:30;;;;;;;6.47;5.87;;;25.90;99.90;;;;;;4896027;29;20515;-79
2021/08/25 09:31:05;;;;;;;7.50;6.73;;;25.80;99.90;;;;;;4896363;29;20532;-79
2021/08/25 09:33:34;;;;;;;6.90;6.30;;;25.60;99.90;;;;;;4896267;29;20466;-79
2021/08/25 09:36:05;;;;;;;7.57;5.80;;;25.70;99.90;;;;;;4896194;29;20467;-78
2021/08/25 09:38:32;;;;;;;5.30;4.80;;;26.00;99.90;;;;;;4894924;29;20427;-77
2021/08/25 09:41:09;;;;;;;5.57;5.13;;;26.10;99.90;;;;;;4896441;29;20439;-78
2021/08/25 09:43:42;;;;;;;7.40;5.13;;;26.80;99.90;;;;;;4896154;29;20443;-78
2021/08/25 09:46:09;;;;;;;5.73;4.00;;;27.00;99.90;;;;;;4900246;29;20431;-78
2021/08/25 09:48:37;;;;;;;6.03;5.50;;;27.30;99.90;;;;;;4899529;29;20933;-80
2021/08/25 09:51:03;;;;;;;7.77;5.10;;;27.20;99.90;;;;;;4899666;29;20541;-78
2021/08/25 09:53:28;;;;;;;5.87;4.83;;;27.00;99.90;;;;;;4899627;29;20470;-76
2021/08/25 09:55:54;;;;;;;5.10;4.70;;;26.60;99.90;;;;;;4899081;29;20446;-77
2021/08/25 09:58:23;;;;;;;5.70;5.17;;;26.50;99.90;;;;;;4898881;29;20183;-77
2021/08/25 10:00:48;;;;;;;5.93;5.00;;;27.00;99.90;;;;;;4898002;29;20229;-77
2021/08/25 10:03:14;;;;;;;6.00;5.07;;;27.20;99.90;;;;;;4899841;29;20979;-80
2021/08/25 10:05:39;;;;;;;5.83;5.20;;;27.40;99.90;;;;;;4899698;29;20190;-79
2021/08/25 10:08:05;;;;;;;6.00;4.77;;;27.60;99.90;;;;;;4901208;29;20243;-80
2021/08/25 10:10:31;;;;;;;10.00;7.47;;;27.20;99.90;;;;;;4900690;29;20280;-80
2021/08/25 10:12:57;;;;;;;5.97;4.60;;;27.80;99.90;;;;;;4900574;29;20186;-80
2021/08/25 10:15:31;;;;;;;4.53;4.23;;;27.80;99.90;;;;;;4901021;29;20250;-80
2021/08/25 10:17:58;;;;;;;5.23;4.73;;;26.70;99.90;;;;;;4899484;29;20179;-80
2021/08/25 10:20:23;;;;;;;5.10;4.70;;;25.40;99.90;;;;;;4900659;29;20419;-80
2021/08/25 10:22:51;;;;;;;5.20;4.03;;;24.60;99.90;;;;;;4900279;29;20457;-80
2021/08/25 10:25:16;;;;;;;5.03;4.33;;;24.30;99.90;;;;;;4899806;29;20273;-81
2021/08/25 10:28:02;;;;;;;4.50;4.20;;;25.10;99.90;;;;;;4900839;29;20475;-80
2021/08/25 10:30:28;;;;;;;6.53;4.13;;;25.90;99.90;;;;;;4900366;29;20204;-79
2021/08/25 10:32:54;;;;;;;6.00;5.40;;;25.40;99.90;;;;;;4898707;29;20839;-81
2021/08/25 10:35:31;;;;;;;5.67;3.50;;;25.70;99.90;;;;;;4900562;29;20415;-80
2021/08/25 10:38:18;;;;;;;8.20;4.17;;;26.30;99.90;;;;;;4900594;29;20226;-80
2021/08/25 10:40:44;;;;;;;8.23;5.77;;;26.60;99.90;;;;;;4900909;29;20497;-81
2021/08/25 10:43:10;;;;;;;8.40;4.70;;;26.50;99.90;;;;;;4900213;29;20414;-80
2021/08/25 10:45:44;;;;;;;4.70;4.23;;;26.80;99.90;;;;;;4900793;29;20555;-80
2021/08/25 10:48:11;;;;;;;5.50;4.90;;;26.90;99.90;;;;;;4899672;29;20189;-80
2021/08/25 10:50:50;;;;;;;4.60;4.13;;;26.60;99.90;;;;;;4899659;29;20411;-80
2021/08/25 10:53:27;;;;;;;4.70;4.30;;;26.50;99.90;;;;;;4899735;29;20486;-81
2021/08/25 10:56:09;;;;;;;5.27;4.10;;;25.80;99.90;;;;;;4899941;29;20963;-81
2021/08/25 10:58:44;;;;;;;4.37;4.00;;;25.40;99.90;;;;;;4900077;29;20411;-81
2021/08/25 11:01:33;;;;;;;4.33;3.73;;;25.70;99.90;;;;;;4899752;29;20465;-80
2021/08/25 11:04:02;;;;;;;4.57;3.90;;;26.20;99.90;;;;;;4897761;29;20517;-74
2021/08/25 11:06:39;;;;;;;7.70;4.30;;;26.20;99.90;;;;;;4897298;29;20863;-74
2021/08/25 11:09:19;;;;;;;6.30;4.27;;;25.70;99.90;;;;;;4895306;29;20459;-74
2021/08/25 11:11:59;;;;;;;4.67;4.23;;;25.40;99.90;;;;;;4883041;29;20453;-75
2021/08/25 11:14:30;;;;;;;6.47;4.23;;;25.30;99.90;;;;;;4897017;29;20494;-75
2021/08/25 11:17:02;;;;;;;5.37;4.53;;;24.70;99.90;;;;;;4897597;29;20435;-74
2021/08/25 11:19:33;;;;;;;5.50;4.17;;;24.30;99.90;;;;;;4897276;29;20435;-74
2021/08/25 11:22:00;;;;;;;6.07;3.90;;;24.20;99.90;;;;;;4898146;29;20792;-74
2021/08/25 11:24:40;;;;;;;7.00;4.37;;;24.30;99.90;;;;;;4897835;29;20901;-74
2021/08/25 11:27:23;;;;;;;7.97;4.10;;;24.30;99.90;;;;;;4897975;29;20447;-74
2021/08/25 11:30:14;;;;;;;8.03;4.10;;;24.40;99.90;;;;;;4897575;29;20538;-74
2021/08/25 11:32:59;;;;;;;6.67;4.60;;;24.50;99.90;;;;;;4897780;29;20455;-74
2021/08/25 11:35:45;;;;;;;4.53;4.13;;;24.40;99.90;;;;;;4897321;29;20466;-73
2021/08/25 11:38:10;;;;;;;7.00;3.83;;;24.60;99.90;;;;;;4896068;29;20785;-74
2021/08/25 11:40:40;;;;;;;7.37;4.87;;;24.50;99.90;;;;;;4897117;29;20438;-75
2021/08/25 11:43:07;;;;;;;8.90;4.23;;;24.40;99.90;;;;;;4894996;29;20175;-75
2021/08/25 11:45:34;;;;;;;6.00;4.80;;;24.60;99.90;;;;;;4897418;29;20427;-74
2021/08/25 11:48:00;;;;;;;5.33;4.50;;;24.80;99.90;;;;;;4897119;29;20466;-76
2021/08/25 11:50:28;;;;;;;5.30;4.70;;;24.80;99.90;;;;;;4897533;29;20506;-77
2021/08/25 11:52:55;;;;;;;4.10;3.70;;;24.50;99.90;;;;;;4897995;29;20463;-78
2021/08/25 11:55:21;;;;;;;7.10;4.30;;;24.00;99.90;;;;;;4898206;29;20804;-76
2021/08/25 11:57:52;;;;;;;4.50;4.10;;;23.60;99.90;;;;;;4896441;29;20423;-77
2021/08/25 12:00:20;;;;;;;5.47;4.20;;;23.00;99.90;;;;;;4897572;29;21029;-78
2021/08/25 12:03:03;;;;;;;7.00;4.80;;;23.00;99.90;;;;;;4896242;29;20458;-77
2021/08/25 12:05:31;;;;;;;5.13;4.63;;;23.30;99.90;;;;;;4898315;29;20419;-77
2021/08/25 12:08:06;;;;;;;5.00;4.60;;;23.60;99.90;;;;;;4897213;29;20427;-77
2021/08/25 12:10:34;;;;;;;5.23;4.60;;;23.90;99.90;;;;;;4897790;29;20762;-77
2021/08/25 12:13:00;;;;;;;4.60;4.20;;;24.00;99.90;;;;;;4897561;29;20423;-77
2021/08/25 12:15:49;;;;;;;5.53;4.87;;;24.00;99.90;;;;;;4898161;29;20919;-77
2021/08/25 12:18:16;;;;;;;6.20;5.10;;;23.60;99.90;;;;;;4897947;29;20715;-77
2021/08/25 12:20:44;;;;;;;7.80;4.97;;;23.10;99.90;;;;;;4896594;29;20434;-77
2021/08/25 12:23:13;;;;;;;7.10;4.60;;;22.80;99.90;;;;;;4895437;29;20431;-78
2021/08/25 12:25:43;;;;;;;6.87;4.90;;;22.90;99.90;;;;;;4897436;29;20433;-80
2021/08/25 12:28:14;;;;;;;5.17;4.50;;;23.00;99.90;;;;;;4896444;29;20427;-74
2021/08/25 12:30:41;;;;;;;6.23;5.37;;;23.10;99.90;;;;;;4896257;29;20423;-73
2021/08/25 12:33:10;;;;;;;6.93;4.77;;;23.20;99.90;;;;;;4898084;29;20459;-78
2021/08/25 12:35:37;;;;;;;5.43;4.70;;;23.30;99.90;;;;;;4898532;29;20420;-78
2021/08/25 12:38:05;;;;;;;7.07;3.87;;;23.50;99.90;;;;;;4898827;29;20447;-78
2021/08/25 12:40:31;;;;;;;5.60;4.60;;;23.70;99.90;;;;;;4899113;29;20426;-77
2021/08/25 12:42:58;;;;;;;5.90;4.83;;;23.70;99.90;;;;;;4898355;29;20838;-77
2021/08/25 12:45:25;;;;;;;5.67;5.07;;;23.30;99.90;;;;;;4912202;29;20442;-78
2021/08/25 12:47:52;;;;;;;7.47;4.93;;;23.20;99.90;;;;;;4899144;29;20448;-78
2021/08/25 12:50:20;;;;;;;7.43;4.60;;;23.20;99.90;;;;;;4898223;29;20439;-77
2021/08/25 12:52:45;;;;;;;7.53;5.30;;;23.20;99.90;;;;;;4896255;29;20477;-76
2021/08/25 12:55:11;;;;;;;6.83;4.57;;;23.40;99.90;;;;;;4896913;29;20510;-78
2021/08/25 12:57:38;;;;;;;5.50;4.43;;;23.60;99.90;;;;;;4899610;29;20213;-78
2021/08/25 13:00:06;;;;;;;6.17;4.17;;;23.70;99.90;;;;;;4897467;29;20222;-78
2021/08/25 13:02:32;;;;;;;8.23;4.77;;;23.80;99.90;;;;;;4899215;29;20435;-78
2021/08/25 13:04:57;;;;;;;7.67;4.83;;;23.60;99.90;;;;;;4898634;29;20486;-78
2021/08/25 13:07:23;;;;;;;8.40;4.77;;;23.40;99.90;;;;;;4897731;29;20906;-78
2021/08/25 13:09:48;;;;;;;6.97;5.10;;;23.30;99.90;;;;;;4898391;29;20179;-77
2021/08/25 13:12:14;;;;;;;7.03;5.20;;;23.20;99.90;;;;;;4898069;29;20212;-78
2021/08/25 13:14:39;;;;;;;7.00;5.23;;;23.20;99.90;;;;;;4898364;29;20229;-78
2021/08/25 13:17:05;;;;;;;5.87;4.50;;;23.10;99.90;;;;;;4898114;29;20191;-78
2021/08/25 13:19:31;;;;;;;7.20;4.90;;;22.80;99.90;;;;;;4900743;29;20191;-78
2021/08/25 13:21:56;;;;;;;14.73;4.87;;;22.80;99.90;;;;;;4901337;29;20446;-77
2021/08/25 13:24:22;;;;;;;7.87;5.00;;;22.70;99.90;;;;;;4901722;29;20197;-77
2021/08/25 13:26:47;;;;;;;7.40;5.17;;;22.70;99.90;;;;;;4896532;29;20187;-78
2021/08/25 13:29:13;;;;;;;6.50;5.50;;;22.80;99.90;;;;;;4890116;29;20674;-77
2021/08/25 13:31:38;;;;;;;6.40;4.90;;;22.90;99.90;;;;;;4902071;29;20222;-78
2021/08/25 13:34:04;;;;;;;8.60;5.80;;;22.80;99.90;;;;;;4900992;29;20246;-79
2021/08/25 13:36:29;;;;;;;8.90;5.10;;;22.70;99.90;;;;;;4902741;29;20214;-79
2021/08/25 13:38:55;;;;;;;6.50;4.90;;;22.60;99.90;;;;;;4900751;29;20553;-78
2021/08/25 13:41:21;;;;;;;6.60;5.20;;;22.60;99.90;;;;;;4900562;29;20214;-78
2021/08/25 13:43:46;;;;;;;10.27;5.63;;;22.20;99.90;;;;;;4899710;29;20646;-79
2021/08/25 13:46:12;;;;;;;8.47;5.77;;;22.10;99.90;;;;;;4901301;29;20191;-79
2021/08/25 13:48:37;;;;;;;9.90;5.13;;;22.10;99.90;;;;;;4900903;29;20230;-78
2021/08/25 13:51:03;;;;;;;7.20;5.30;;;22.10;99.90;;;;;;4901322;29;20641;-79
2021/08/25 13:53:28;;;;;;;9.10;5.00;;;22.20;99.90;;;;;;4900517;29;20302;-79
2021/08/25 13:55:54;;;;;;;6.53;4.80;;;22.20;99.90;;;;;;4901311;29;20175;-78
2021/08/25 13:58:19;;;;;;;5.73;4.93;;;22.10;99.90;;;;;;4900549;29;20298;-79
2021/08/25 14:00:46;;;;;;;7.17;5.40;;;22.10;99.90;;;;;;4901298;29;20187;-78
2021/08/25 14:03:12;;;;;;;8.03;5.00;;;22.10;99.90;;;;;;4901593;29;20222;-78
2021/08/25 14:05:38;;;;;;;7.13;5.60;;;22.20;99.90;;;;;;4901611;29;20483;-78
2021/08/25 14:08:04;;;;;;;8.63;6.27;;;22.10;99.90;;;;;;4900902;29;20505;-79
2021/08/25 14:10:30;;;;;;;8.47;5.57;;;22.00;99.90;;;;;;4899408;29;20190;-77
2021/08/25 14:12:56;;;;;;;11.40;4.80;;;21.90;99.90;;;;;;4899253;29;20896;-78
2021/08/25 14:15:22;;;;;;;7.13;6.17;;;21.90;99.90;;;;;;4900009;29;20530;-78
2021/08/25 14:17:48;;;;;;;10.97;5.87;;;21.80;99.90;;;;;;4900407;29;20273;-77
2021/08/25 14:20:14;;;;;;;5.57;5.07;;;21.70;99.90;;;;;;4900650;29;20190;-78
2021/08/25 14:22:40;;;;;;;8.50;6.10;;;21.60;99.90;;;;;;4900383;29;20234;-79
2021/08/25 14:25:07;;;;;;;9.37;5.50;;;21.50;99.90;;;;;;4900704;29;20449;-79
2021/08/25 14:27:32;;;;;;;6.77;4.60;;;21.40;99.90;;;;;;4900189;29;20443;-79
2021/08/25 14:29:58;;;;;;;9.70;5.87;;;21.50;99.90;;;;;;4900140;29;20426;-78
2021/08/25 14:32:23;;;;;;;5.77;4.97;;;21.50;99.90;;;;;;4899083;29;20222;-78
2021/08/25 14:34:49;;;;;;;9.93;6.10;;;21.50;99.90;;;;;;4898436;29;20488;-78
2021/08/25 14:37:14;;;;;;;6.30;4.87;;;21.50;99.90;;;;;;4898549;29;20186;-78
2021/08/25 14:39:40;;;;;;;7.03;5.10;;;21.50;99.90;;;;;;4898736;29;20210;-77
2021/08/25 14:42:06;;;;;;;9.27;6.40;;;21.40;99.90;;;;;;4898620;29;20198;-77
2021/08/25 14:44:31;;;;;;;7.40;5.40;;;21.50;99.90;;;;;;4899178;29;20214;-77
2021/08/25 14:46:57;;;;;;;9.67;6.50;;;21.40;99.90;;;;;;4898507;29;20724;-77
2021/08/25 14:49:22;;;;;;;8.17;5.70;;;21.40;99.90;;;;;;4898588;29;20206;-78
2021/08/25 14:51:48;;;;;;;5.87;4.90;;;21.40;99.90;;;;;;4898794;29;20588;-77
2021/08/25 14:54:14;;;;;;;6.00;5.40;;;21.40;99.90;;;;;;4898384;29;20266;-78
2021/08/25 14:56:40;;;;;;;6.90;5.23;;;21.40;99.90;;;;;;4899024;29;20229;-77
2021/08/25 14:59:05;;;;;;;9.27;6.47;;;21.40;99.90;;;;;;4898304;29;20251;-77
2021/08/25 15:01:31;;;;;;;6.80;5.63;;;21.50;99.90;;;;;;4898236;29;20435;-77
2021/08/25 15:03:58;;;;;;;10.47;5.77;;;21.50;99.90;;;;;;4898891;29;20183;-78
2021/08/25 15:06:24;;;;;;;6.83;5.73;;;21.40;99.90;;;;;;4897358;29;20233;-78
2021/08/25 15:08:49;;;;;;;8.27;5.00;;;21.40;99.90;;;;;;4898537;29;20462;-78
2021/08/25 15:11:16;;;;;;;9.87;5.50;;;21.30;99.90;;;;;;4898538;29;20226;-77
2021/08/25 15:13:42;;;;;;;6.40;5.60;;;21.20;99.90;;;;;;4898544;29;20210;-77
2021/08/25 15:16:25;;;;;;;7.53;5.80;;;21.20;99.90;;;;;;4898672;29;20423;-77
2021/08/25 15:18:51;;;;;;;6.00;5.40;;;21.20;99.90;;;;;;4898599;29;20178;-78
2021/08/25 15:21:18;;;;;;;5.60;4.63;;;21.20;99.90;;;;;;4912967;29;20473;-78
2021/08/25 15:23:44;;;;;;;9.97;5.03;;;21.20;99.90;;;;;;4898363;29;20506;-77
2021/08/25 15:26:10;;;;;;;9.37;5.70;;;21.20;99.90;;;;;;4898291;29;20587;-78
2021/08/25 15:28:35;;;;;;;6.50;5.40;;;21.10;99.90;;;;;;4897601;29;20517;-77
2021/08/25 15:31:01;;;;;;;6.87;5.67;;;21.10;99.90;;;;;;4897861;29;20587;-77
2021/08/25 15:33:26;;;;;;;9.87;5.63;;;21.10;99.90;;;;;;4898210;29;20565;-77
2021/08/25 15:35:52;;;;;;;6.30;4.93;;;21.20;99.90;;;;;;4898288;29;20186;-77
2021/08/25 15:38:18;;;;;;;7.67;5.67;;;21.10;99.90;;;;;;4898123;29;20230;-78
2021/08/25 15:40:43;;;;;;;7.50;5.70;;;21.20;99.90;;;;;;4898040;29;20502;-77
2021/08/25 15:43:09;;;;;;;7.17;4.83;;;21.10;99.90;;;;;;4896937;29;20189;-77
2021/08/25 15:45:34;;;;;;;8.00;6.00;;;21.00;99.90;;;;;;4898312;29;20178;-77
2021/08/25 15:47:59;;;;;;;7.50;5.70;;;21.00;99.90;;;;;;4898160;29;20214;-77
2021/08/25 15:50:25;;;;;;;8.20;5.53;;;21.00;99.90;;;;;;4896346;29;20214;-76
2021/08/25 15:52:50;;;;;;;7.23;6.13;;;21.00;99.90;;;;;;4897589;29;20199;-76
2021/08/25 15:55:17;;;;;;;7.13;5.20;;;20.90;99.90;;;;;;4897820;29;20191;-77
2021/08/25 15:57:42;;;;;;;7.07;5.47;;;20.90;99.90;;;;;;4897518;29;20235;-77
2021/08/25 16:00:08;;;;;;;7.20;5.20;;;20.90;99.90;;;;;;4897247;29;20423;-76
2021/08/25 16:02:37;;;;;;;7.27;5.20;;;20.80;99.90;;;;;;4897451;29;20194;-77
2021/08/25 16:05:03;;;;;;;9.60;5.67;;;20.80;99.90;;;;;;4897664;29;20486;-78
2021/08/25 16:07:29;;;;;;;8.40;7.30;;;20.70;99.90;;;;;;4897664;29;20835;-77
2021/08/25 16:09:54;;;;;;;8.97;6.23;;;20.70;99.90;;;;;;4897733;29;20182;-77
2021/08/25 16:12:20;;;;;;;8.67;5.60;;;20.70;99.90;;;;;;4897359;29;20542;-77
2021/08/25 16:14:45;;;;;;;5.80;5.03;;;20.60;99.90;;;;;;4897518;29;20220;-77
2021/08/25 16:17:11;;;;;;;8.90;5.70;;;20.60;99.90;;;;;;4897686;29;20254;-77
2021/08/25 16:19:36;;;;;;;7.83;5.60;;;20.60;99.90;;;;;;4897751;29;20708;-77
2021/08/25 16:22:02;;;;;;;6.10;5.17;;;20.60;99.90;;;;;;4897344;29;20660;-78
2021/08/25 16:24:28;;;;;;;8.37;5.57;;;20.50;99.90;;;;;;4897534;29;20234;-77
2021/08/25 16:26:53;;;;;;;8.43;5.50;;;20.50;99.90;;;;;;4896365;29;20186;-77
2021/08/25 16:29:19;;;;;;;8.80;6.03;;;20.40;99.90;;;;;;4897168;29;20191;-77
2021/08/25 16:31:44;;;;;;;6.27;5.20;;;20.40;99.90;;;;;;4897311;29;20221;-77
2021/08/25 16:34:10;;;;;;;8.87;4.90;;;20.40;99.90;;;;;;4897243;29;20213;-77
2021/08/25 16:36:36;;;;;;;6.90;5.50;;;20.40;99.90;;;;;;4911822;29;20183;-77
2021/08/25 16:39:02;;;;;;;10.63;6.57;;;20.40;99.90;;;;;;4897058;29;20179;-77
2021/08/25 16:41:28;;;;;;;7.13;6.10;;;20.30;99.90;;;;;;4897466;29;20917;-78
2021/08/25 16:43:55;;;;;;;7.23;5.23;;;20.30;99.90;;;;;;4897296;29;20786;-78
2021/08/25 16:46:21;;;;;;;6.90;4.70;;;20.30;99.90;;;;;;4897169;29;20716;-77
2021/08/25 16:48:47;;;;;;;8.03;6.37;;;20.20;99.90;;;;;;4897052;29;20506;-77
2021/08/25 16:51:12;;;;;;;8.97;5.50;;;20.20;99.90;;;;;;4896579;29;20498;-77
2021/08/25 16:53:38;;;;;;;10.27;5.73;;;20.20;99.90;;;;;;4896389;29;20693;-77
2021/08/25 16:56:03;;;;;;;8.80;5.60;;;20.20;99.90;;;;;;4896625;29;20310;-76
2021/08/25 16:58:30;;;;;;;10.53;6.50;;;20.10;99.90;;;;;;4896909;29;20648;-77
2021/08/25 17:00:57;;;;;;;8.60;5.43;;;20.00;99.90;;;;;;4896706;29;20200;-77
2021/08/25 17:03:25;;;;;;;9.80;6.17;;;20.00;99.90;;;;;;4911000;29;20430;-77
2021/08/25 17:05:51;;;;;;;9.87;6.10;;;19.90;99.90;;;;;;4896829;29;20427;-77
2021/08/25 17:08:16;;;;;;;9.90;5.87;;;19.80;99.90;;;;;;4896487;29;20498;-77
2021/08/25 17:10:42;;;;;;;10.03;5.97;;;19.80;99.90;;;;;;4896672;29;20182;-77
2021/08/25 17:13:08;;;;;;;6.77;5.33;;;19.80;99.90;;;;;;4896477;29;20422;-77